Turocak, Russia
Current Conditions -  °F | °C
As of 7:30 AM on Tuesday 21 Oct 2014 (Local Time) from UNBB Reporting Station
Broken Clouds Broken Clouds  
Wind Chill: 50°   Ceiling: 1900
Heat Index: 50°   Visibility: 6mi
Dew Point: 45°   Wind: 31mph
Humidity: 82%   Direction: 260°W
Pressure: 29.44"   Gusts: 45mph
Location:  52.27°N, 87.17°E
Report Text: UNBB 210030Z 26014G20MPS 9999 BKN019CB 10/07 Q0997 NOSIG RMKQFE726/0968 24290151
Loading
Personal Weather Stations






























Interactive Weather Map
Tropical Storm Tracking
New forecast layout! Learn more

10-Day Weather Forecast

Advertisements
Track Severe Weather on mobile